Silver Ford, Pennsylvania
Current Conditions -  °F | °C
As of 10:53 AM on Wednesday 22 Oct 2014 (Local Time) from KAOO Reporting Station
Overcast Overcast  
Wind Chill: 43°   Ceiling: 1700
Heat Index: 48°   Visibility: 10mi
Dew Point: 44°   Wind: 10mph
Humidity: 86%   Direction: 340°NNW
Pressure: 30.06"   Gusts: NA
Location:  40.4281°N, 77.8329°W
Report Text: KAOO 221453Z AUTO 34009KT 10SM OVC017 09/07 A3006 RMK AO2 SLP184 T00890067 51013
Loading
Personal Weather Stations






























Interactive Weather Map
Tropical Storm Tracking
New forecast layout! Learn more

10-Day Weather Forecast

Advertisements
Track Severe Weather on mobile